Página principal
METAR-TAF:

METAR-TAF

Aeroportos :

Aeroporto de Namangan

Namangan, Uzbequistão

latitude: 40-59-04N, longitude: 071-33-24E, altura: 474 m

Observação actual do tempo

O boletim foi feito há 45 minutos, às 20:30 UTC
Vento 2 kt de norte
Temperatura 1°C
Humidade 80%
Pressão 1017 hPa
Visibilidade: 0650 m
nevoeiro

METAR: UTFN 112030Z 01002KT 0650 R28/1800D FG NSC 01/M02 Q1017 R28/CLRD70 NOSIG

Hora: 02:15 (21:15 UTC)

Previsão

O boletim foi feito há 4 horas e 15 minutos, às 17:00 UTC
Previsão válida de 11 às 18 UTC a 12 às 18 UTC
Vento 10 kt de nor-noroeste
Visibilidade: 1500 m
Nuvens dispersasa uma altura de 1000 ft
neblina
Temporariamente
de 11 às 18 UTC a 12 às 04 UTC
Vento 2 kt com direcção variável
Visibilidade: 0300 m
a uma altura de 200 ft
nevoeiro

TAF: UTFN 111700Z 1118/1218 34010KT 1500 BR SCT010 TEMPO 1118/1204 VRB02KT 0300 FG VV002

Observações e previsões do tempo de mais de 4000 aeroportos (mensagens METAR e TAF).

As estações disponíveis são os pontos amarelos e vermelhos sobre o mapa.

Mova o rato sobre o mapa para ver o nome da estação.

Depois clique no ponto para visualizar as observações e previsões meteorológicas.

Para alterar o mapa : clique nos botões verdes com uma cruz preta para aumentar o zoom; no botão verde com uma pitada de zoom; ou nas setas verdes para mapas adjacentes.


METAR-TAF: